Time;durP1;ratioP1;P1;durP2;ratioP2;P2;SDS_P1;SDS_P2;PMS_P1;PMS_P2;Temp;Humidity;BMP_temperature;BMP_pressure;BME280_temperature;BME280_humidity;BME280_pressure;Samples;Min_cycle;Max_cycle;Signal;HPM_P1;HPM_P2
2023/07/10 00:00:49;;;;;;;1.63;1.53;;;24.00;90.10;;;;;;5075473;28;20214;-80
2023/07/10 00:03:16;;;;;;;3.00;1.95;;;23.90;90.20;;;;;;5075476;28;20202;-80
2023/07/10 00:05:43;;;;;;;2.10;1.63;;;23.90;89.80;;;;;;5075249;28;20209;-80
2023/07/10 00:08:09;;;;;;;2.55;1.35;;;23.90;89.40;;;;;;5075364;28;20208;-80
2023/07/10 00:10:37;;;;;;;2.05;1.80;;;23.80;90.30;;;;;;5075137;28;20312;-80
2023/07/10 00:13:05;;;;;;;3.17;1.97;;;23.80;90.20;;;;;;5074933;28;20692;-80
2023/07/10 00:15:32;;;;;;;2.10;1.48;;;23.80;90.10;;;;;;5075202;28;20210;-80
2023/07/10 00:17:58;;;;;;;2.40;2.20;;;23.80;89.40;;;;;;5074806;28;20209;-80
2023/07/10 00:20:27;;;;;;;5.23;1.90;;;23.80;89.90;;;;;;5074206;28;20222;-80
2023/07/10 00:22:54;;;;;;;1.90;1.70;;;23.80;90.00;;;;;;5075047;28;20209;-80
2023/07/10 00:25:22;;;;;;;2.87;1.70;;;23.80;90.00;;;;;;5075012;28;20202;-80
2023/07/10 00:27:50;;;;;;;3.67;1.73;;;23.80;90.20;;;;;;5074706;28;20209;-80
2023/07/10 00:30:20;;;;;;;2.53;1.95;;;23.80;89.50;;;;;;5074280;28;20241;-80
2023/07/10 00:32:51;;;;;;;3.37;2.97;;;23.80;90.80;;;;;;5074856;28;20190;-80
2023/07/10 00:35:18;;;;;;;2.70;2.50;;;23.70;91.60;;;;;;5074824;28;20214;-80
2023/07/10 00:38:01;;;;;;;2.27;2.17;;;23.60;92.20;;;;;;5074745;28;20202;-80
2023/07/10 00:40:29;;;;;;;4.20;2.50;;;23.50;92.80;;;;;;5074677;28;20225;-80
2023/07/10 00:43:01;;;;;;;3.00;2.30;;;23.40;93.10;;;;;;5074611;28;20206;-80
2023/07/10 00:45:30;;;;;;;3.80;2.33;;;23.40;92.90;;;;;;5074369;28;20291;-80
2023/07/10 00:48:05;;;;;;;2.67;2.47;;;23.30;93.30;;;;;;5074201;28;20209;-80
2023/07/10 00:50:37;;;;;;;3.57;2.40;;;23.20;92.90;;;;;;5074106;28;20222;-80
2023/07/10 00:53:11;;;;;;;4.63;2.60;;;23.20;93.40;;;;;;5074500;28;20439;-80
2023/07/10 00:55:39;;;;;;;4.57;2.83;;;23.10;93.10;;;;;;5074414;28;20425;-80
2023/07/10 00:58:22;;;;;;;1.80;1.70;;;23.10;93.20;;;;;;5074321;28;20479;-80
2023/07/10 01:01:07;;;;;;;2.03;1.93;;;23.10;93.20;;;;;;5073933;28;20972;-80
2023/07/10 01:03:35;;;;;;;2.23;1.93;;;23.00;94.00;;;;;;5074249;28;20447;-80
2023/07/10 01:06:08;;;;;;;9.87;2.13;;;23.00;93.80;;;;;;5074164;28;20452;-80
2023/07/10 01:08:36;;;;;;;3.07;1.57;;;23.00;93.20;;;;;;5074092;28;20433;-80
2023/07/10 01:11:03;;;;;;;2.40;2.00;;;23.00;92.70;;;;;;5074014;28;20506;-80
2023/07/10 01:13:30;;;;;;;4.77;2.10;;;23.00;93.40;;;;;;5074015;28;20455;-80
2023/07/10 01:15:57;;;;;;;3.27;2.13;;;23.00;93.40;;;;;;5073993;28;20455;-80
2023/07/10 01:18:26;;;;;;;3.80;2.30;;;23.00;93.20;;;;;;5073964;28;20448;-80
2023/07/10 01:21:08;;;;;;;4.20;2.70;;;23.00;93.50;;;;;;5073843;28;20460;-80
2023/07/10 01:23:35;;;;;;;2.33;2.13;;;22.90;93.60;;;;;;5073906;28;20429;-80
2023/07/10 01:26:03;;;;;;;2.90;2.50;;;22.90;93.80;;;;;;5073542;28;20440;-80
2023/07/10 01:28:33;;;;;;;2.33;1.97;;;22.90;93.50;;;;;;5073421;28;20570;-80
2023/07/10 01:31:03;;;;;;;2.73;1.40;;;22.90;93.60;;;;;;5073685;28;20490;-80
2023/07/10 01:33:35;;;;;;;3.50;2.17;;;22.80;93.60;;;;;;5073662;28;20502;-80
2023/07/10 01:36:04;;;;;;;3.23;2.20;;;22.80;94.30;;;;;;5073781;28;20433;-80
2023/07/10 01:38:35;;;;;;;2.40;2.20;;;22.70;94.20;;;;;;5073576;28;20450;-80
2023/07/10 01:41:10;;;;;;;2.53;2.30;;;22.70;93.80;;;;;;5073707;28;20425;-80
2023/07/10 01:43:37;;;;;;;2.43;2.10;;;22.70;94.20;;;;;;5073613;28;20424;-80
2023/07/10 01:46:18;;;;;;;4.10;2.70;;;22.70;94.10;;;;;;5073256;28;20950;-80
2023/07/10 01:48:45;;;;;;;2.40;2.20;;;22.60;94.40;;;;;;5073514;28;20498;-80
2023/07/10 01:51:13;;;;;;;3.73;2.20;;;22.60;94.30;;;;;;5073482;28;20486;-80
2023/07/10 01:53:42;;;;;;;3.83;2.33;;;22.60;94.00;;;;;;5073502;28;20459;-80
2023/07/10 01:56:09;;;;;;;4.33;1.60;;;22.60;94.10;;;;;;5073479;28;20448;-80
2023/07/10 01:58:36;;;;;;;2.63;2.03;;;22.60;93.90;;;;;;5073398;28;20448;-80
2023/07/10 02:01:02;;;;;;;2.60;1.93;;;22.60;93.80;;;;;;5073425;28;20440;-80
2023/07/10 02:03:29;;;;;;;2.10;1.70;;;22.60;94.00;;;;;;5073023;28;20849;-80
2023/07/10 02:05:56;;;;;;;2.97;1.60;;;22.60;94.00;;;;;;5073385;28;20440;-80
2023/07/10 02:08:25;;;;;;;2.40;2.00;;;22.60;94.00;;;;;;5073864;28;20861;-80
2023/07/10 02:10:52;;;;;;;5.33;2.67;;;22.60;94.00;;;;;;5073182;28;20480;-80
2023/07/10 02:13:18;;;;;;;3.30;2.10;;;22.60;94.30;;;;;;5072984;28;20448;-80
2023/07/10 02:15:45;;;;;;;3.07;2.20;;;22.60;94.50;;;;;;5073303;28;20467;-80
2023/07/10 02:18:12;;;;;;;2.30;2.20;;;22.70;93.90;;;;;;5073246;28;20817;-80
2023/07/10 02:20:39;;;;;;;3.63;2.13;;;22.70;94.00;;;;;;5073125;28;20465;-80
2023/07/10 02:23:06;;;;;;;2.00;1.80;;;22.70;93.80;;;;;;5073173;28;20448;-80
2023/07/10 02:25:34;;;;;;;2.70;2.03;;;22.80;93.70;;;;;;5073135;28;20459;-80
2023/07/10 02:28:01;;;;;;;2.17;2.07;;;22.80;94.20;;;;;;5072949;28;20476;-80
2023/07/10 02:30:28;;;;;;;2.63;2.20;;;22.80;94.10;;;;;;5072705;28;20475;-80
2023/07/10 02:32:55;;;;;;;3.03;2.40;;;22.80;94.20;;;;;;5073078;28;20432;-80
2023/07/10 02:35:21;;;;;;;2.50;2.30;;;22.80;93.80;;;;;;5072837;28;20953;-80
2023/07/10 02:37:48;;;;;;;2.20;2.00;;;22.80;93.90;;;;;;5073040;28;20440;-80
2023/07/10 02:40:15;;;;;;;3.57;2.10;;;22.80;93.60;;;;;;5072635;28;20987;-80
2023/07/10 02:42:43;;;;;;;2.67;2.17;;;22.70;93.60;;;;;;5072988;28;20448;-80
2023/07/10 02:45:11;;;;;;;3.90;2.80;;;22.70;93.90;;;;;;5076314;28;20432;-80
2023/07/10 02:47:37;;;;;;;3.53;2.10;;;22.80;94.30;;;;;;5076839;28;20449;-80
2023/07/10 02:50:04;;;;;;;3.40;2.00;;;22.80;95.90;;;;;;5076713;28;20471;-80
2023/07/10 02:52:31;;;;;;;3.90;2.80;;;22.70;98.10;;;;;;5076664;28;20528;-81
2023/07/10 02:54:58;;;;;;;5.67;2.60;;;22.60;99.90;;;;;;5077219;28;20452;-80
2023/07/10 02:57:24;;;;;;;6.80;3.40;;;22.50;99.90;;;;;;5076329;28;20967;-80
2023/07/10 02:59:53;;;;;;;3.13;2.73;;;22.50;99.90;;;;;;5076435;28;20478;-80
2023/07/10 03:02:20;;;;;;;3.20;2.93;;;22.40;99.90;;;;;;5076540;28;20436;-80
2023/07/10 03:04:47;;;;;;;3.63;2.17;;;22.40;99.90;;;;;;5076540;28;20448;-80
2023/07/10 03:07:13;;;;;;;3.60;2.57;;;22.30;99.90;;;;;;5076427;28;20474;-80
2023/07/10 03:09:40;;;;;;;3.50;2.50;;;22.30;99.90;;;;;;5076055;28;20471;-80
2023/07/10 03:12:08;;;;;;;4.43;2.53;;;22.30;99.90;;;;;;5076280;28;20479;-80
2023/07/10 03:14:35;;;;;;;7.43;3.17;;;22.30;99.90;;;;;;5076021;28;21013;-80
2023/07/10 03:17:04;;;;;;;2.73;2.33;;;22.30;99.90;;;;;;5076258;28;20440;-80
2023/07/10 03:19:31;;;;;;;3.57;2.77;;;22.30;99.90;;;;;;5076167;28;20464;-80
2023/07/10 03:21:58;;;;;;;2.63;2.43;;;22.30;99.90;;;;;;5076187;28;20444;-80
2023/07/10 03:24:25;;;;;;;3.83;2.80;;;22.30;99.90;;;;;;5075825;28;20455;-80
2023/07/10 03:26:52;;;;;;;4.60;2.93;;;22.30;99.90;;;;;;5076135;28;20542;-80
2023/07/10 03:29:19;;;;;;;4.30;2.03;;;22.30;99.90;;;;;;5075615;28;20491;-81
2023/07/10 03:31:46;;;;;;;2.73;2.60;;;22.30;99.90;;;;;;5075990;28;20491;-80
2023/07/10 03:34:15;;;;;;;3.20;2.70;;;22.40;99.90;;;;;;5075956;28;20451;-79
2023/07/10 03:36:42;;;;;;;2.80;2.50;;;22.40;99.90;;;;;;5075972;28;20485;-78
2023/07/10 03:39:09;;;;;;;5.70;3.50;;;22.40;99.90;;;;;;5075839;28;20472;-78
2023/07/10 03:41:37;;;;;;;2.50;2.03;;;22.50;99.90;;;;;;5075538;28;20436;-78
2023/07/10 03:44:03;;;;;;;3.23;2.40;;;22.50;99.90;;;;;;5075781;28;20444;-78
2023/07/10 03:46:30;;;;;;;3.10;2.53;;;22.50;99.90;;;;;;5075773;28;20455;-78
2023/07/10 03:48:57;;;;;;;2.17;1.80;;;22.50;99.90;;;;;;5075647;28;20471;-78
2023/07/10 03:51:25;;;;;;;3.10;2.53;;;22.50;99.90;;;;;;5075595;28;20487;-78
2023/07/10 03:53:52;;;;;;;2.83;2.57;;;22.50;99.90;;;;;;5075510;28;20459;-78
2023/07/10 03:56:19;;;;;;;2.97;2.67;;;22.50;99.90;;;;;;5074519;28;20452;-78
2023/07/10 03:58:46;;;;;;;7.07;2.50;;;22.50;99.90;;;;;;5075460;28;20444;-78
2023/07/10 04:01:14;;;;;;;4.10;2.60;;;22.50;99.90;;;;;;5075171;28;20447;-78
2023/07/10 04:03:41;;;;;;;6.30;2.50;;;22.50;99.90;;;;;;5075449;28;20444;-78
2023/07/10 04:06:11;;;;;;;3.83;2.23;;;22.50;99.90;;;;;;5075401;28;20445;-78
2023/07/10 04:08:41;;;;;;;3.10;2.80;;;22.50;99.90;;;;;;5075221;28;20447;-78
2023/07/10 04:11:10;;;;;;;3.27;2.93;;;22.60;99.90;;;;;;5075476;28;20475;-78
2023/07/10 04:13:37;;;;;;;3.30;2.27;;;22.60;99.90;;;;;;5075184;28;20454;-78
2023/07/10 04:16:06;;;;;;;3.70;2.07;;;22.60;99.90;;;;;;5074868;28;20452;-78
2023/07/10 04:18:35;;;;;;;3.83;2.53;;;22.60;99.90;;;;;;5074745;28;20448;-78
2023/07/10 04:21:04;;;;;;;3.97;3.00;;;22.60;99.90;;;;;;5075113;28;20452;-78
2023/07/10 04:23:31;;;;;;;2.50;1.73;;;22.60;99.90;;;;;;5075022;28;20460;-78
2023/07/10 04:25:59;;;;;;;2.70;2.40;;;22.60;99.90;;;;;;5074990;28;20498;-78
2023/07/10 04:28:26;;;;;;;4.07;2.43;;;22.70;99.90;;;;;;5074660;28;20476;-78
2023/07/10 04:30:53;;;;;;;3.53;2.50;;;22.70;99.90;;;;;;5074506;28;20972;-78
2023/07/10 04:33:21;;;;;;;4.10;2.40;;;22.60;99.90;;;;;;5074513;28;20932;-78
2023/07/10 04:35:54;;;;;;;4.80;2.90;;;22.60;99.90;;;;;;5074828;28;20451;-78
2023/07/10 04:38:23;;;;;;;6.60;3.13;;;22.60;99.90;;;;;;5074817;28;20460;-78
2023/07/10 04:40:54;;;;;;;4.20;3.30;;;22.60;99.90;;;;;;5074614;28;20472;-78
2023/07/10 04:43:23;;;;;;;4.27;3.13;;;22.60;99.90;;;;;;5074628;28;20444;-78
2023/07/10 04:45:50;;;;;;;2.60;2.40;;;22.60;99.90;;;;;;5074587;28;20448;-78
2023/07/10 04:48:16;;;;;;;3.53;3.00;;;22.50;99.90;;;;;;5074556;28;20444;-78
2023/07/10 04:50:47;;;;;;;4.17;2.70;;;22.40;99.90;;;;;;5074119;28;20979;-78
2023/07/10 04:53:14;;;;;;;4.50;2.70;;;22.40;99.90;;;;;;5074449;28;20492;-78
2023/07/10 04:55:41;;;;;;;6.23;2.90;;;22.40;99.90;;;;;;5074371;28;20453;-78
2023/07/10 04:58:08;;;;;;;3.83;2.30;;;22.40;99.90;;;;;;5074330;28;20451;-78
2023/07/10 05:00:37;;;;;;;2.80;2.40;;;22.50;99.90;;;;;;5074222;28;20521;-78
2023/07/10 05:03:06;;;;;;;5.50;3.17;;;22.60;99.90;;;;;;5073863;28;20819;-78
2023/07/10 05:05:33;;;;;;;2.83;2.43;;;22.60;99.90;;;;;;5074228;28;20458;-78
2023/07/10 05:08:00;;;;;;;2.80;2.13;;;22.70;99.90;;;;;;5073770;28;20448;-78
2023/07/10 05:10:27;;;;;;;3.50;2.47;;;22.70;99.90;;;;;;5073752;28;21003;-78
2023/07/10 05:12:54;;;;;;;2.57;2.37;;;22.80;99.90;;;;;;5073652;28;20515;-78
2023/07/10 05:15:21;;;;;;;3.37;2.50;;;23.00;99.90;;;;;;5073724;28;20940;-78
2023/07/10 05:17:49;;;;;;;5.17;2.40;;;23.00;99.90;;;;;;5073959;28;20440;-78
2023/07/10 05:20:16;;;;;;;2.60;2.40;;;23.00;99.90;;;;;;5073490;28;20475;-78
2023/07/10 05:22:43;;;;;;;3.33;2.10;;;23.10;99.90;;;;;;5073876;28;20543;-78
2023/07/10 05:25:10;;;;;;;4.17;2.30;;;23.20;99.90;;;;;;5073857;28;20202;-78
2023/07/10 05:27:37;;;;;;;4.40;2.80;;;23.30;99.90;;;;;;5073837;28;20444;-80
2023/07/10 05:30:05;;;;;;;9.77;2.60;;;23.40;99.90;;;;;;5073302;28;20523;-80
2023/07/10 05:32:32;;;;;;;5.07;3.20;;;23.50;99.90;;;;;;5073675;28;20222;-80
2023/07/10 05:35:00;;;;;;;4.13;2.40;;;23.60;99.90;;;;;;5073682;28;20206;-80
2023/07/10 05:37:27;;;;;;;3.23;2.40;;;23.70;99.90;;;;;;5073400;28;20208;-81
2023/07/10 05:39:54;;;;;;;3.27;2.87;;;23.60;99.90;;;;;;5073583;28;20529;-80
2023/07/10 05:42:20;;;;;;;5.13;2.23;;;23.50;99.90;;;;;;5073658;28;20462;-80
2023/07/10 05:44:47;;;;;;;2.27;2.10;;;23.50;99.90;;;;;;5073269;28;20681;-80
2023/07/10 05:47:14;;;;;;;5.43;3.53;;;23.60;99.90;;;;;;5073570;28;20206;-80
2023/07/10 05:49:41;;;;;;;3.50;2.30;;;23.60;99.90;;;;;;5073179;28;20225;-80
2023/07/10 05:52:09;;;;;;;3.30;2.05;;;23.60;99.90;;;;;;5073438;28;20221;-80
2023/07/10 05:54:36;;;;;;;2.97;2.20;;;23.70;99.90;;;;;;5074290;28;20209;-80
2023/07/10 05:57:02;;;;;;;5.80;2.93;;;23.80;99.90;;;;;;5073612;28;20289;-80
2023/07/10 05:59:29;;;;;;;2.13;1.93;;;23.90;99.90;;;;;;5073061;28;20737;-80
2023/07/10 06:01:57;;;;;;;4.30;2.60;;;23.90;99.90;;;;;;5073402;28;20453;-80
2023/07/10 06:04:23;;;;;;;2.77;2.57;;;24.00;99.90;;;;;;5073066;28;20662;-80
2023/07/10 06:06:50;;;;;;;2.92;2.63;;;24.00;99.90;;;;;;5073075;28;20202;-80
2023/07/10 06:09:18;;;;;;;2.57;2.37;;;24.10;99.90;;;;;;5073237;28;20249;-80
2023/07/10 06:11:45;;;;;;;2.27;2.07;;;24.30;99.90;;;;;;5073254;28;20234;-80
2023/07/10 06:14:11;;;;;;;2.63;2.40;;;24.40;99.90;;;;;;5072961;28;20685;-80
2023/07/10 06:16:38;;;;;;;3.53;2.60;;;24.60;99.90;;;;;;5072960;28;20666;-80
2023/07/10 06:19:05;;;;;;;2.42;2.22;;;24.80;99.90;;;;;;5074813;28;20226;-80
2023/07/10 06:21:32;;;;;;;2.90;2.70;;;24.90;99.90;;;;;;5077422;28;20212;-80
2023/07/10 06:23:58;;;;;;;3.33;2.00;;;25.10;99.90;;;;;;5077352;28;20283;-80
2023/07/10 06:26:26;;;;;;;2.47;2.33;;;25.30;99.90;;;;;;5077003;28;20696;-80
2023/07/10 06:28:53;;;;;;;2.58;2.20;;;25.40;99.90;;;;;;5076856;28;20735;-80
2023/07/10 06:31:20;;;;;;;2.03;1.92;;;25.70;99.90;;;;;;5076881;28;20198;-80
2023/07/10 06:33:47;;;;;;;5.47;2.47;;;25.90;99.90;;;;;;5077126;28;20206;-80
2023/07/10 06:36:13;;;;;;;2.63;2.17;;;26.10;99.90;;;;;;5077120;28;20205;-80
2023/07/10 06:38:41;;;;;;;2.03;1.83;;;26.50;99.90;;;;;;5076971;28;20205;-80
2023/07/10 06:41:10;;;;;;;4.55;2.30;;;26.60;99.90;;;;;;5077021;28;20212;-80
2023/07/10 06:43:38;;;;;;;2.35;2.15;;;27.00;99.90;;;;;;5076639;28;20202;-81
2023/07/10 06:46:05;;;;;;;3.03;2.28;;;27.20;99.90;;;;;;5076888;28;20251;-80
2023/07/10 06:48:32;;;;;;;2.47;1.48;;;27.30;99.90;;;;;;5076474;28;20198;-81
2023/07/10 06:51:00;;;;;;;2.67;2.30;;;27.20;99.90;;;;;;5076820;28;20209;-80
2023/07/10 06:53:26;;;;;;;2.50;2.30;;;27.30;99.90;;;;;;5076690;28;20225;-80
2023/07/10 06:55:54;;;;;;;2.38;2.25;;;27.20;99.90;;;;;;5076461;28;20665;-81
2023/07/10 06:58:21;;;;;;;9.02;2.88;;;27.10;99.90;;;;;;5076626;28;20206;-81
2023/07/10 07:00:49;;;;;;;5.10;2.33;;;27.00;99.90;;;;;;5076607;28;20226;-80
2023/07/10 07:03:16;;;;;;;2.40;2.20;;;26.90;99.90;;;;;;5076231;28;20209;-80
2023/07/10 07:05:43;;;;;;;3.40;3.05;;;27.00;99.90;;;;;;5076548;28;20221;-80
2023/07/10 07:08:09;;;;;;;2.40;2.20;;;27.20;99.90;;;;;;5076455;28;20217;-80
2023/07/10 07:10:40;;;;;;;2.15;2.00;;;27.50;99.90;;;;;;5076041;28;20567;-81
2023/07/10 07:13:07;;;;;;;2.00;1.90;;;27.50;99.90;;;;;;5076046;28;20573;-81
2023/07/10 07:15:34;;;;;;;2.15;1.95;;;27.50;99.90;;;;;;5076377;28;20204;-81
2023/07/10 07:18:03;;;;;;;2.55;2.08;;;27.40;99.90;;;;;;5076373;28;20225;-80
2023/07/10 07:20:29;;;;;;;1.80;1.70;;;27.40;99.90;;;;;;5075927;28;20317;-80
2023/07/10 07:22:56;;;;;;;3.42;2.38;;;27.40;99.90;;;;;;5076266;28;20206;-81
2023/07/10 07:25:23;;;;;;;2.40;2.20;;;27.30;99.90;;;;;;5075894;28;20666;-80
2023/07/10 07:27:50;;;;;;;2.95;2.40;;;27.30;99.90;;;;;;5075939;28;20261;-80
2023/07/10 07:30:16;;;;;;;2.45;2.08;;;27.40;99.90;;;;;;5075287;28;20238;-80
2023/07/10 07:32:44;;;;;;;2.97;2.60;;;27.50;99.90;;;;;;5075990;28;20233;-81
2023/07/10 07:35:12;;;;;;;2.53;2.33;;;27.70;99.90;;;;;;5076011;28;20205;-81
2023/07/10 07:37:39;;;;;;;2.22;2.10;;;27.80;99.90;;;;;;5075683;28;20205;-80
2023/07/10 07:40:08;;;;;;;1.92;1.75;;;27.90;99.90;;;;;;5075841;28;20229;-80
2023/07/10 07:42:35;;;;;;;3.30;2.78;;;28.00;99.90;;;;;;5075545;28;20238;-81
2023/07/10 07:45:02;;;;;;;2.30;1.98;;;28.30;99.90;;;;;;5075869;28;20229;-81
2023/07/10 07:47:29;;;;;;;3.20;2.50;;;28.60;99.90;;;;;;5075730;28;20245;-81
2023/07/10 07:49:58;;;;;;;3.28;2.35;;;28.70;98.90;;;;;;5075651;28;20223;-81
2023/07/10 07:52:26;;;;;;;2.05;1.95;;;29.00;98.50;;;;;;5075564;28;20626;-81
2023/07/10 07:54:52;;;;;;;2.47;1.90;;;29.40;98.70;;;;;;5075328;28;20672;-81
2023/07/10 07:57:22;;;;;;;1.58;1.48;;;29.70;97.40;;;;;;5075584;28;20220;-81
2023/07/10 07:59:49;;;;;;;1.85;1.75;;;29.80;97.40;;;;;;5075494;28;20226;-81
2023/07/10 08:02:16;;;;;;;2.45;1.65;;;29.80;96.80;;;;;;5075458;28;20202;-81
2023/07/10 08:04:42;;;;;;;2.40;2.20;;;29.90;97.00;;;;;;5075407;28;20206;-81
2023/07/10 08:07:09;;;;;;;1.73;1.55;;;30.00;96.40;;;;;;5075445;28;20220;-81
2023/07/10 08:09:37;;;;;;;1.55;1.45;;;30.00;96.40;;;;;;5075266;28;20230;-81
2023/07/10 08:12:05;;;;;;;2.17;1.48;;;29.90;96.10;;;;;;5075279;28;20202;-81
2023/07/10 08:14:32;;;;;;;2.08;1.88;;;29.80;95.80;;;;;;5074966;28;20211;-81
2023/07/10 08:16:58;;;;;;;1.73;1.63;;;29.70;96.00;;;;;;5075222;28;20202;-82
2023/07/10 08:19:25;;;;;;;9.52;1.98;;;29.60;96.20;;;;;;5075140;28;20279;-81
2023/07/10 08:21:54;;;;;;;1.77;1.67;;;29.40;96.70;;;;;;5075125;28;20207;-82
2023/07/10 08:24:21;;;;;;;2.30;2.10;;;29.30;96.80;;;;;;5074755;28;20662;-81
2023/07/10 08:26:49;;;;;;;2.15;2.03;;;29.40;97.10;;;;;;5074989;28;20213;-81
2023/07/10 08:29:24;;;;;;;3.22;1.67;;;29.30;97.00;;;;;;5074402;28;20242;-81
2023/07/10 08:31:52;;;;;;;6.95;2.50;;;29.30;96.70;;;;;;5074584;28;20706;-81
2023/07/10 08:34:19;;;;;;;2.40;2.20;;;29.40;96.90;;;;;;5074524;28;20210;-81
2023/07/10 08:36:45;;;;;;;2.20;2.10;;;29.70;97.10;;;;;;5074527;28;20580;-82
2023/07/10 08:39:12;;;;;;;1.83;1.73;;;30.20;96.70;;;;;;5074691;28;20219;-82
2023/07/10 08:41:40;;;;;;;2.13;2.03;;;30.60;95.70;;;;;;5074033;28;20200;-82
2023/07/10 08:44:11;;;;;;;2.63;2.42;;;31.10;94.50;;;;;;5074669;28;20199;-82
2023/07/10 08:46:37;;;;;;;2.53;2.10;;;31.50;94.00;;;;;;5075212;28;20212;-82
2023/07/10 08:49:09;;;;;;;2.58;1.67;;;31.40;94.10;;;;;;5074171;28;20230;-81
2023/07/10 08:51:45;;;;;;;4.70;1.98;;;31.50;94.00;;;;;;5074587;28;20274;-82
2023/07/10 08:54:18;;;;;;;2.42;2.22;;;31.70;93.20;;;;;;5074443;28;20208;-82
2023/07/10 08:56:49;;;;;;;4.00;2.58;;;31.70;92.80;;;;;;5074460;28;20259;-82
2023/07/10 08:59:38;;;;;;;2.42;2.20;;;31.60;93.10;;;;;;5074318;28;20226;-82
2023/07/10 09:02:17;;;;;;;1.90;1.75;;;31.50;93.60;;;;;;5074355;28;20241;-82
2023/07/10 09:04:46;;;;;;;1.65;1.50;;;31.60;93.10;;;;;;5074369;28;20201;-82
2023/07/10 09:07:14;;;;;;;2.00;1.88;;;31.80;93.10;;;;;;5074237;28;20203;-81
2023/07/10 09:09:45;;;;;;;1.95;1.85;;;32.10;93.10;;;;;;5074098;28;20222;-82
2023/07/10 09:12:18;;;;;;;1.70;1.60;;;32.50;92.50;;;;;;5074201;28;20187;-82
2023/07/10 09:14:52;;;;;;;2.75;2.00;;;32.90;91.40;;;;;;5074068;28;20219;-81
2023/07/10 09:17:27;;;;;;;2.58;2.33;;;32.90;91.30;;;;;;5074097;28;20189;-82
2023/07/10 09:19:57;;;;;;;2.78;1.80;;;32.90;90.30;;;;;;5074007;28;20222;-82
2023/07/10 09:22:25;;;;;;;1.98;1.88;;;32.50;90.10;;;;;;5073923;28;20202;-82
2023/07/10 09:24:51;;;;;;;2.35;2.15;;;32.10;90.70;;;;;;5073938;28;20213;-82
2023/07/10 09:27:18;;;;;;;1.90;1.80;;;31.70;91.10;;;;;;5073821;28;20206;-81
2023/07/10 09:29:51;;;;;;;4.22;2.40;;;31.40;92.00;;;;;;5073380;28;20237;-81
2023/07/10 09:32:20;;;;;;;1.92;1.80;;;31.00;91.90;;;;;;5073834;28;20196;-82
2023/07/10 09:34:50;;;;;;;2.25;2.15;;;30.90;92.40;;;;;;5073724;28;20348;-82
2023/07/10 09:37:20;;;;;;;2.05;1.85;;;30.70;92.70;;;;;;5073762;28;20204;-81
2023/07/10 09:39:47;;;;;;;2.38;2.17;;;30.50;92.90;;;;;;5073348;28;20222;-82
2023/07/10 09:42:16;;;;;;;2.35;1.83;;;30.50;92.70;;;;;;5073677;28;20204;-81
2023/07/10 09:44:53;;;;;;;2.22;2.13;;;30.50;93.10;;;;;;5073605;28;20206;-82
2023/07/10 09:47:21;;;;;;;2.13;1.80;;;30.70;92.60;;;;;;5073605;28;20190;-81
2023/07/10 09:49:49;;;;;;;2.45;2.25;;;30.70;92.90;;;;;;5073254;28;20225;-81
2023/07/10 09:52:23;;;;;;;3.05;2.10;;;30.80;92.60;;;;;;5073510;28;20209;-81
2023/07/10 09:54:57;;;;;;;2.08;1.92;;;31.00;92.70;;;;;;5073467;28;20264;-82
2023/07/10 09:57:23;;;;;;;2.33;1.73;;;31.20;93.10;;;;;;5073175;28;20187;-81
2023/07/10 09:59:54;;;;;;;2.75;2.53;;;31.40;93.50;;;;;;5073372;28;20221;-82
2023/07/10 10:02:23;;;;;;;5.82;2.10;;;31.50;92.60;;;;;;5073430;28;20191;-82
2023/07/10 10:05:00;;;;;;;3.20;1.98;;;31.60;92.10;;;;;;5073055;28;20546;-81
2023/07/10 10:07:36;;;;;;;2.50;2.30;;;31.60;92.10;;;;;;5073484;28;20545;-82
2023/07/10 10:10:05;;;;;;;2.35;2.15;;;31.60;92.10;;;;;;5073330;28;20225;-81
2023/07/10 10:12:34;;;;;;;2.00;1.90;;;31.50;92.30;;;;;;5073278;28;20205;-82
2023/07/10 10:15:09;;;;;;;3.38;2.75;;;31.40;92.00;;;;;;5072874;28;20740;-81
2023/07/10 10:17:41;;;;;;;3.97;2.20;;;31.40;92.50;;;;;;5073337;28;20189;-82
2023/07/10 10:20:14;;;;;;;2.65;2.25;;;31.50;92.60;;;;;;5073185;28;20218;-82
2023/07/10 10:22:41;;;;;;;3.50;2.30;;;31.60;92.70;;;;;;5073273;28;20190;-81
2023/07/10 10:25:15;;;;;;;2.47;2.28;;;31.70;93.00;;;;;;5073247;28;20664;-81
2023/07/10 10:27:50;;;;;;;1.98;1.77;;;31.60;92.30;;;;;;5073202;28;20199;-81
2023/07/10 10:30:38;;;;;;;2.13;2.03;;;31.40;92.40;;;;;;5072683;28;20233;-81
2023/07/10 10:33:18;;;;;;;2.53;2.33;;;31.00;93.30;;;;;;5072772;28;20654;-82
2023/07/10 10:35:55;;;;;;;2.25;2.13;;;30.60;93.30;;;;;;5073133;28;20218;-82
2023/07/10 10:38:35;;;;;;;2.75;1.85;;;30.40;93.50;;;;;;5073128;28;20288;-82
2023/07/10 10:41:25;;;;;;;2.10;2.00;;;30.20;93.50;;;;;;5073114;28;20182;-81
2023/07/10 10:43:58;;;;;;;2.60;2.40;;;30.20;93.90;;;;;;5073002;28;20244;-81
2023/07/10 10:46:51;;;;;;;3.03;2.08;;;30.40;93.90;;;;;;5073059;28;20196;-82
2023/07/10 10:49:36;;;;;;;4.15;2.67;;;30.70;93.60;;;;;;5072949;28;20226;-81
2023/07/10 10:52:11;;;;;;;2.63;2.42;;;30.80;93.70;;;;;;5072994;28;20187;-79
2023/07/10 10:54:48;;;;;;;2.80;2.60;;;30.90;93.10;;;;;;5072887;28;20216;-80
2023/07/10 10:57:29;;;;;;;2.90;2.60;;;30.70;93.40;;;;;;5072943;28;20182;-79
2023/07/10 11:00:10;;;;;;;3.10;2.65;;;30.50;93.60;;;;;;5072795;28;20238;-80
2023/07/10 11:02:53;;;;;;;7.90;2.28;;;30.30;93.70;;;;;;5072635;28;20191;-79
2023/07/10 11:05:28;;;;;;;2.88;2.67;;;30.30;94.10;;;;;;5074407;28;20539;-79
2023/07/10 11:08:00;;;;;;;3.45;2.38;;;30.40;94.70;;;;;;5076569;28;20202;-79
2023/07/10 11:10:31;;;;;;;5.70;1.90;;;30.50;93.70;;;;;;5076140;28;20713;-79
2023/07/10 11:12:59;;;;;;;2.78;2.58;;;30.70;93.30;;;;;;5076523;28;20280;-79
2023/07/10 11:15:29;;;;;;;2.28;2.00;;;30.70;93.60;;;;;;5076194;28;20199;-80
2023/07/10 11:17:59;;;;;;;1.60;1.50;;;30.60;90.90;;;;;;5076359;28;20205;-79
2023/07/10 11:20:27;;;;;;;2.20;1.98;;;30.60;89.70;;;;;;5076220;28;20223;-81
2023/07/10 11:22:56;;;;;;;2.28;2.08;;;30.70;89.50;;;;;;5075996;28;20206;-82
2023/07/10 11:25:31;;;;;;;2.65;1.50;;;30.80;82.10;;;;;;5076162;28;20686;-83
2023/07/10 11:28:02;;;;;;;1.83;1.73;;;30.90;78.10;;;;;;5076047;28;20183;-81
2023/07/10 11:30:34;;;;;;;2.45;2.25;;;31.00;77.60;;;;;;5075782;28;20732;-82
2023/07/10 11:33:15;;;;;;;3.50;2.28;;;31.10;77.30;;;;;;5076046;28;20202;-82
2023/07/10 11:36:11;;;;;;;2.05;1.65;;;31.10;76.80;;;;;;5076182;28;20189;-82
2023/07/10 11:38:55;;;;;;;1.98;1.77;;;31.20;75.30;;;;;;5075808;28;20581;-81
2023/07/10 11:41:27;;;;;;;1.73;1.63;;;31.20;72.60;;;;;;5075865;28;20645;-82
2023/07/10 11:43:57;;;;;;;1.95;1.58;;;31.20;72.70;;;;;;5075971;28;20187;-82
2023/07/10 11:46:34;;;;;;;1.83;1.63;;;31.30;72.30;;;;;;5076008;28;20228;-82
2023/07/10 11:49:13;;;;;;;1.83;1.58;;;31.30;68.80;;;;;;5075787;28;20226;-82
2023/07/10 11:51:40;;;;;;;2.45;1.67;;;31.30;69.10;;;;;;5075876;28;20197;-82
2023/07/10 11:54:35;;;;;;;2.30;1.58;;;31.40;68.30;;;;;;5075326;28;20727;-82
2023/07/10 11:57:10;;;;;;;1.40;1.30;;;31.40;68.30;;;;;;5075696;28;20186;-82
2023/07/10 11:59:47;;;;;;;2.40;2.03;;;31.50;67.70;;;;;;5075269;28;20236;-82
2023/07/10 12:02:32;;;;;;;1.33;1.20;;;31.60;69.00;;;;;;5075214;28;20638;-82
2023/07/10 12:05:02;;;;;;;1.70;1.48;;;31.60;68.10;;;;;;5075502;28;20191;-81
2023/07/10 12:07:29;;;;;;;1.58;1.48;;;31.60;67.90;;;;;;5075145;28;20682;-82
2023/07/10 12:09:59;;;;;;;2.15;1.55;;;31.60;70.40;;;;;;5075364;28;20219;-83
2023/07/10 12:12:31;;;;;;;2.05;1.70;;;31.60;69.10;;;;;;5075057;28;20638;-81
2023/07/10 12:15:00;;;;;;;1.90;1.10;;;31.50;69.90;;;;;;5074987;28;20209;-82
2023/07/10 12:17:31;;;;;;;2.00;1.75;;;31.60;70.50;;;;;;5074172;28;20252;-81
2023/07/10 12:20:02;;;;;;;3.22;1.80;;;31.50;68.40;;;;;;5075149;28;20222;-82
2023/07/10 12:22:35;;;;;;;1.48;1.38;;;31.40;69.90;;;;;;5075153;28;20190;-81
2023/07/10 12:25:03;;;;;;;1.55;1.45;;;31.40;69.20;;;;;;5075239;28;20186;-81
2023/07/10 12:27:35;;;;;;;1.67;1.58;;;31.30;69.00;;;;;;5075021;28;20206;-82
2023/07/10 12:30:04;;;;;;;1.67;1.52;;;31.30;69.10;;;;;;5074505;28;20238;-82
2023/07/10 12:32:33;;;;;;;1.45;1.35;;;31.30;69.30;;;;;;5075456;28;20209;-81
2023/07/10 12:35:01;;;;;;;1.73;1.63;;;31.30;69.70;;;;;;5074862;28;20224;-82
2023/07/10 12:37:28;;;;;;;1.88;1.60;;;31.30;70.50;;;;;;5074852;28;20210;-82
2023/07/10 12:39:55;;;;;;;1.45;1.35;;;31.30;70.30;;;;;;5074756;28;20226;-81
2023/07/10 12:42:33;;;;;;;1.88;1.77;;;31.20;70.50;;;;;;5074721;28;20198;-81
2023/07/10 12:45:05;;;;;;;1.95;1.73;;;31.10;70.60;;;;;;5074702;28;20182;-82
2023/07/10 12:47:34;;;;;;;2.22;1.95;;;31.10;69.80;;;;;;5074738;28;20203;-81
2023/07/10 12:50:02;;;;;;;2.10;1.35;;;31.10;70.40;;;;;;5074550;28;20221;-81
2023/07/10 12:52:36;;;;;;;2.00;1.75;;;31.10;72.10;;;;;;5074285;28;20695;-81
2023/07/10 12:55:06;;;;;;;2.35;1.88;;;31.00;70.10;;;;;;5074528;28;20279;-81
2023/07/10 12:57:35;;;;;;;2.03;1.42;;;30.90;71.00;;;;;;5074149;28;20214;-81
2023/07/10 13:00:05;;;;;;;1.40;1.33;;;30.90;72.30;;;;;;5074364;28;20312;-82